createdAt,value
2023-01-31T00:01:11.552Z,10.65
2023-01-31T00:03:40.030Z,6.22
2023-01-31T00:06:17.352Z,12.10
2023-01-31T00:08:45.433Z,9.65
2023-01-31T00:11:13.391Z,8.32
2023-01-31T00:13:41.497Z,10.02
2023-01-31T00:16:09.831Z,6.88
2023-01-31T00:18:39.241Z,8.02
2023-01-31T00:21:11.095Z,8.55
2023-01-31T00:23:40.672Z,9.10
2023-01-31T00:26:10.675Z,6.63
2023-01-31T00:28:38.564Z,6.40
2023-01-31T00:31:06.824Z,6.18
2023-01-31T00:33:35.306Z,7.53
2023-01-31T00:36:05.601Z,8.52
2023-01-31T00:38:33.546Z,6.50
2023-01-31T00:41:03.940Z,7.35
2023-01-31T00:43:32.001Z,8.88
2023-01-31T00:45:59.955Z,6.18
2023-01-31T00:48:27.864Z,7.47
2023-01-31T00:50:55.765Z,8.07
2023-01-31T00:53:24.187Z,7.05
2023-01-31T00:55:52.212Z,5.72
2023-01-31T00:58:21.562Z,8.18
2023-01-31T01:00:49.719Z,6.47
2023-01-31T01:03:18.377Z,7.80
2023-01-31T01:05:46.267Z,8.63
2023-01-31T01:08:14.284Z,6.65
2023-01-31T01:10:42.168Z,6.60
2023-01-31T01:13:10.043Z,6.32
2023-01-31T01:15:40.127Z,6.63
2023-01-31T01:18:08.216Z,6.75
2023-01-31T01:20:36.589Z,6.35
2023-01-31T01:23:04.580Z,6.63
2023-01-31T01:25:32.824Z,6.30
2023-01-31T01:28:01.336Z,5.63
2023-01-31T01:30:29.239Z,8.40
2023-01-31T01:32:58.472Z,6.90
2023-01-31T01:35:26.451Z,6.00
2023-01-31T01:37:54.330Z,7.25
2023-01-31T01:40:22.336Z,5.47
2023-01-31T01:42:50.217Z,6.88
2023-01-31T01:45:20.079Z,6.10
2023-01-31T01:47:50.501Z,5.00
2023-01-31T01:50:23.142Z,9.38
2023-01-31T01:52:53.197Z,4.82
2023-01-31T01:55:24.006Z,4.68
2023-01-31T01:57:53.702Z,4.80
2023-01-31T02:00:22.840Z,5.07
2023-01-31T02:02:54.832Z,5.38
2023-01-31T02:05:27.423Z,5.45
2023-01-31T02:07:55.388Z,5.05
2023-01-31T02:10:25.369Z,5.65
2023-01-31T02:12:53.258Z,5.65
2023-01-31T02:15:21.980Z,4.18
2023-01-31T02:17:50.177Z,5.07
2023-01-31T02:20:43.385Z,5.78
2023-01-31T02:23:26.100Z,5.85
2023-01-31T02:26:18.027Z,5.55
2023-01-31T02:29:25.623Z,5.80
2023-01-31T02:32:17.957Z,4.25
2023-01-31T02:34:50.056Z,7.88
2023-01-31T02:37:22.011Z,5.05
2023-01-31T02:39:55.133Z,5.03
2023-01-31T02:42:25.096Z,3.95
2023-01-31T02:45:00.868Z,5.05
2023-01-31T02:47:34.413Z,4.25
2023-01-31T02:50:05.692Z,3.97
2023-01-31T02:52:36.536Z,4.13
2023-01-31T02:55:29.083Z,3.60
2023-01-31T02:57:58.291Z,3.65
2023-01-31T03:00:26.383Z,5.00
2023-01-31T03:02:54.611Z,4.70
2023-01-31T03:05:24.192Z,4.82
2023-01-31T03:07:53.419Z,4.93
2023-01-31T03:10:42.774Z,4.38
2023-01-31T03:13:22.424Z,6.18
2023-01-31T03:16:25.703Z,4.43
2023-01-31T03:18:56.142Z,5.20
2023-01-31T03:21:27.529Z,4.18
2023-01-31T03:23:56.757Z,3.75
2023-01-31T03:26:25.496Z,5.10
2023-01-31T03:28:57.131Z,3.65
2023-01-31T03:31:26.512Z,5.70
2023-01-31T03:33:56.397Z,4.40
2023-01-31T03:36:29.752Z,4.32
2023-01-31T03:39:11.037Z,3.95
2023-01-31T03:41:46.557Z,6.07
2023-01-31T03:44:17.031Z,5.07
2023-01-31T03:46:45.996Z,5.10
2023-01-31T03:49:14.618Z,4.45
2023-01-31T03:51:47.849Z,4.68
2023-01-31T03:54:18.952Z,3.92
2023-01-31T03:56:48.543Z,3.63
2023-01-31T03:59:17.486Z,4.32
2023-01-31T04:01:48.516Z,3.83
2023-01-31T04:04:18.859Z,4.32
2023-01-31T04:06:48.363Z,3.17
2023-01-31T04:09:16.467Z,3.58
2023-01-31T04:11:44.391Z,3.95
2023-01-31T04:14:12.544Z,6.78
2023-01-31T04:16:40.478Z,4.32
2023-01-31T04:19:08.401Z,3.13
2023-01-31T04:21:36.862Z,3.97
2023-01-31T04:24:07.123Z,4.50
2023-01-31T04:26:35.009Z,4.13
2023-01-31T04:29:02.905Z,2.63
2023-01-31T04:31:30.900Z,5.38
2023-01-31T04:33:59.897Z,4.45
2023-01-31T04:36:27.855Z,4.25
2023-01-31T04:38:55.741Z,3.05
2023-01-31T04:41:24.955Z,3.42
2023-01-31T04:43:52.849Z,3.60
2023-01-31T04:46:20.803Z,3.33
2023-01-31T04:48:48.761Z,4.30
2023-01-31T04:51:16.684Z,5.13
2023-01-31T04:53:44.925Z,3.00
2023-01-31T04:56:12.848Z,3.42
2023-01-31T04:58:43.443Z,5.10
2023-01-31T05:01:11.359Z,2.75
2023-01-31T05:03:39.359Z,3.83
2023-01-31T05:06:08.546Z,3.55
2023-01-31T05:08:36.588Z,5.07
2023-01-31T05:11:05.703Z,4.78
2023-01-31T05:13:34.542Z,3.72
2023-01-31T05:16:03.867Z,2.85
2023-01-31T05:18:31.779Z,3.42
2023-01-31T05:20:59.606Z,2.70
2023-01-31T05:23:27.498Z,3.03
2023-01-31T05:25:55.550Z,3.15
2023-01-31T05:28:25.547Z,2.95
2023-01-31T05:30:53.696Z,3.88
2023-01-31T05:33:23.223Z,4.50
2023-01-31T05:35:51.105Z,3.97
2023-01-31T05:38:18.981Z,3.63
2023-01-31T05:40:46.934Z,3.60
2023-01-31T05:43:14.815Z,3.53
2023-01-31T05:45:42.791Z,3.67
2023-01-31T05:48:10.737Z,3.00
2023-01-31T05:50:40.111Z,3.20
2023-01-31T05:53:11.046Z,3.75
2023-01-31T05:55:38.880Z,3.63
2023-01-31T05:58:06.757Z,2.72
2023-01-31T06:00:34.608Z,5.47
2023-01-31T06:03:03.117Z,2.85
2023-01-31T06:05:32.026Z,4.28
2023-01-31T06:08:01.341Z,2.80
2023-01-31T06:10:29.214Z,3.25
2023-01-31T06:12:57.109Z,3.33
2023-01-31T06:15:24.959Z,4.60
2023-01-31T06:17:52.804Z,3.03
2023-01-31T06:20:20.807Z,3.42
2023-01-31T06:22:48.744Z,4.00
2023-01-31T06:25:18.478Z,3.63
2023-01-31T06:27:46.639Z,3.58
2023-01-31T06:30:15.167Z,4.60
2023-01-31T06:32:43.013Z,3.33
2023-01-31T06:35:11.182Z,2.90
2023-01-31T06:37:39.071Z,3.72
2023-01-31T06:40:07.843Z,2.58
2023-01-31T06:42:37.219Z,3.67
2023-01-31T06:45:05.596Z,3.45
2023-01-31T06:47:33.917Z,4.10
2023-01-31T06:50:01.850Z,4.72
2023-01-31T06:52:30.463Z,5.10
2023-01-31T06:54:58.531Z,3.20
2023-01-31T06:57:26.429Z,4.25
2023-01-31T06:59:55.690Z,4.53
2023-01-31T07:02:23.565Z,5.22
2023-01-31T07:04:51.767Z,7.65
2023-01-31T07:07:19.656Z,3.28
2023-01-31T07:09:47.537Z,3.90
2023-01-31T07:12:15.399Z,3.58
2023-01-31T07:14:43.607Z,2.65
2023-01-31T07:17:12.859Z,2.95
2023-01-31T07:19:40.756Z,4.15
2023-01-31T07:22:08.581Z,3.15
2023-01-31T07:24:36.455Z,2.63
2023-01-31T07:27:04.439Z,3.70
2023-01-31T07:29:32.502Z,3.30
2023-01-31T07:32:00.418Z,2.83
2023-01-31T07:34:30.139Z,2.95
2023-01-31T07:36:58.068Z,2.63
2023-01-31T07:39:25.956Z,4.78
2023-01-31T07:41:53.799Z,3.40
2023-01-31T07:44:25.399Z,2.55
2023-01-31T07:46:54.837Z,2.88
2023-01-31T07:49:22.716Z,4.43
2023-01-31T07:51:51.917Z,3.05
2023-01-31T07:54:19.798Z,2.40
2023-01-31T07:56:47.726Z,4.20
2023-01-31T07:59:17.141Z,2.42
2023-01-31T08:02:02.404Z,2.97
2023-01-31T08:04:30.866Z,2.55
2023-01-31T08:07:02.882Z,4.97
2023-01-31T08:09:30.826Z,3.03
2023-01-31T08:11:58.880Z,4.20
2023-01-31T08:14:28.267Z,3.67
2023-01-31T08:16:56.613Z,3.22
2023-01-31T08:19:24.512Z,3.75
2023-01-31T08:21:52.404Z,3.00
2023-01-31T08:24:21.626Z,3.28
2023-01-31T08:26:49.541Z,2.45
2023-01-31T08:29:17.445Z,3.20
2023-01-31T08:31:45.513Z,3.25
2023-01-31T08:34:13.913Z,3.05
2023-01-31T08:36:41.777Z,5.60
2023-01-31T08:39:09.697Z,3.03
2023-01-31T08:41:39.514Z,9.70
2023-01-31T08:44:07.702Z,3.65
2023-01-31T08:46:36.275Z,2.90
2023-01-31T08:49:05.205Z,3.00
2023-01-31T08:51:33.047Z,3.20
2023-01-31T08:54:00.964Z,6.43
2023-01-31T08:56:28.983Z,3.92
2023-01-31T08:58:58.400Z,3.72
2023-01-31T09:01:26.262Z,4.03
2023-01-31T09:03:57.131Z,5.05
2023-01-31T09:06:27.034Z,2.95
2023-01-31T09:08:56.780Z,5.95
2023-01-31T09:11:24.684Z,8.35
2023-01-31T09:13:52.643Z,5.05
2023-01-31T09:16:22.230Z,2.92
2023-01-31T09:18:50.262Z,3.22
2023-01-31T09:21:18.936Z,2.65
2023-01-31T09:23:46.981Z,5.78
2023-01-31T09:26:15.111Z,3.85
2023-01-31T09:28:43.462Z,5.18
2023-01-31T09:31:12.869Z,5.90
2023-01-31T09:33:42.229Z,3.97
2023-01-31T09:36:11.413Z,4.57
2023-01-31T09:38:40.198Z,5.88
2023-01-31T09:41:15.480Z,4.05
2023-01-31T09:43:45.608Z,6.13
2023-01-31T09:46:15.547Z,3.10
2023-01-31T09:48:46.926Z,6.00
2023-01-31T09:51:14.906Z,4.93
2023-01-31T09:53:42.882Z,5.15
2023-01-31T09:56:21.056Z,4.25
2023-01-31T09:58:55.190Z,3.90
2023-01-31T10:01:26.007Z,5.68
2023-01-31T10:04:22.380Z,4.95
2023-01-31T10:06:52.169Z,6.88
2023-01-31T10:09:23.900Z,6.35
2023-01-31T10:11:53.511Z,4.95
2023-01-31T10:14:25.230Z,7.88
2023-01-31T10:16:59.405Z,16.65
2023-01-31T10:19:30.252Z,23.73
2023-01-31T10:22:00.715Z,18.48
2023-01-31T10:24:30.408Z,31.17
2023-01-31T10:27:00.049Z,27.77
2023-01-31T10:29:29.788Z,27.27
2023-01-31T10:31:59.875Z,25.98
2023-01-31T10:34:30.428Z,37.65
2023-01-31T10:37:00.097Z,45.03
2023-01-31T10:39:30.811Z,38.60
2023-01-31T10:42:10.814Z,37.45
2023-01-31T10:44:43.553Z,53.25
2023-01-31T10:47:13.223Z,62.70
2023-01-31T10:49:42.698Z,70.35
2023-01-31T10:52:18.138Z,63.35
2023-01-31T10:54:54.343Z,63.22
2023-01-31T10:57:22.556Z,57.80
2023-01-31T10:59:50.444Z,54.42
2023-01-31T11:02:21.049Z,65.10
2023-01-31T11:04:50.762Z,63.47
2023-01-31T11:07:18.649Z,64.15
2023-01-31T11:09:49.567Z,69.68
2023-01-31T11:12:17.460Z,67.47
2023-01-31T11:14:45.396Z,63.70
2023-01-31T11:17:16.954Z,59.47
2023-01-31T11:19:46.333Z,77.60
2023-01-31T11:22:22.353Z,76.93
2023-01-31T11:24:50.353Z,74.28
2023-01-31T11:27:25.682Z,72.00
2023-01-31T11:29:54.840Z,84.30
2023-01-31T11:32:23.688Z,80.70
2023-01-31T11:34:58.723Z,77.07
2023-01-31T11:37:29.366Z,77.55
2023-01-31T11:39:58.305Z,65.93
2023-01-31T11:42:26.349Z,68.40
2023-01-31T11:44:58.774Z,63.05
2023-01-31T11:47:32.596Z,66.47
2023-01-31T11:50:01.223Z,62.17
2023-01-31T11:52:31.800Z,71.05
2023-01-31T11:55:00.749Z,64.45
2023-01-31T11:57:31.531Z,76.72
2023-01-31T12:00:00.001Z,70.28
2023-01-31T12:02:34.415Z,75.80
2023-01-31T12:05:03.229Z,65.55
2023-01-31T12:07:41.728Z,71.68
2023-01-31T12:10:30.010Z,71.28
2023-01-31T12:13:16.458Z,59.42
2023-01-31T12:15:52.638Z,63.17
2023-01-31T12:18:29.903Z,68.65
2023-01-31T12:21:02.489Z,59.20
2023-01-31T12:23:36.301Z,62.15
2023-01-31T12:26:09.250Z,65.65
2023-01-31T12:28:44.547Z,58.72
2023-01-31T12:31:26.388Z,56.90
2023-01-31T12:34:02.562Z,54.58
2023-01-31T12:36:41.506Z,52.97
2023-01-31T12:39:24.083Z,58.20
2023-01-31T12:41:58.585Z,54.92
2023-01-31T12:44:35.537Z,55.70
2023-01-31T12:47:11.958Z,55.28
2023-01-31T12:49:49.846Z,53.47
2023-01-31T12:52:20.196Z,52.75
2023-01-31T12:54:58.236Z,46.72
2023-01-31T12:57:31.690Z,49.45
2023-01-31T13:00:08.297Z,51.45
2023-01-31T13:02:41.837Z,50.50
2023-01-31T13:05:28.232Z,48.33
2023-01-31T13:07:58.802Z,45.80
2023-01-31T13:10:36.726Z,47.30
2023-01-31T13:13:04.648Z,48.58
2023-01-31T13:15:33.989Z,51.58
2023-01-31T13:18:03.250Z,48.00
2023-01-31T13:20:32.749Z,48.55
2023-01-31T13:23:03.857Z,46.85
2023-01-31T13:25:37.184Z,44.08
2023-01-31T13:28:06.494Z,39.50
2023-01-31T13:30:37.148Z,43.33
2023-01-31T13:33:09.804Z,44.10
2023-01-31T13:35:39.364Z,45.83
2023-01-31T13:38:09.009Z,41.33
2023-01-31T13:40:41.871Z,44.65
2023-01-31T13:43:13.574Z,41.90
2023-01-31T13:45:44.091Z,42.58
2023-01-31T13:48:20.332Z,38.53
2023-01-31T13:50:49.982Z,44.85
2023-01-31T13:53:19.472Z,36.83
2023-01-31T13:55:49.102Z,38.20
2023-01-31T13:58:17.880Z,38.70
2023-01-31T14:00:46.266Z,38.22
2023-01-31T14:03:15.386Z,37.22
2023-01-31T14:06:08.228Z,36.35
2023-01-31T14:08:57.541Z,32.75
2023-01-31T14:11:36.630Z,30.75
2023-01-31T14:14:20.657Z,33.50
2023-01-31T14:16:51.728Z,33.25
2023-01-31T14:20:05.310Z,33.72
2023-01-31T14:22:35.055Z,30.75
2023-01-31T14:25:04.648Z,26.95
2023-01-31T14:27:35.964Z,37.55
2023-01-31T14:30:32.863Z,32.38
2023-01-31T14:33:25.454Z,30.70
2023-01-31T14:36:34.473Z,31.48
2023-01-31T14:39:48.175Z,26.30
2023-01-31T14:42:41.782Z,29.50
2023-01-31T14:45:25.957Z,27.48
2023-01-31T14:48:05.320Z,31.83
2023-01-31T14:50:45.810Z,34.83
2023-01-31T14:53:32.945Z,39.90
2023-01-31T14:56:07.835Z,39.67
2023-01-31T14:58:37.391Z,45.17
2023-01-31T15:01:06.381Z,40.20
2023-01-31T15:03:36.045Z,44.65
2023-01-31T15:06:08.760Z,39.90
2023-01-31T15:08:41.506Z,54.28
2023-01-31T15:11:14.138Z,51.95
2023-01-31T15:13:48.177Z,62.03
2023-01-31T15:16:26.364Z,45.60
2023-01-31T15:18:57.775Z,60.15
2023-01-31T15:21:27.660Z,55.15
2023-01-31T15:23:55.710Z,56.63
2023-01-31T15:26:23.965Z,52.00
2023-01-31T15:28:53.478Z,59.90
2023-01-31T15:31:24.552Z,61.25
2023-01-31T15:33:52.984Z,60.65
2023-01-31T15:36:26.553Z,57.55
2023-01-31T15:38:56.939Z,63.50
2023-01-31T15:41:26.258Z,54.45
2023-01-31T15:43:56.734Z,60.55
2023-01-31T15:46:29.665Z,66.03
2023-01-31T15:48:57.570Z,67.47
2023-01-31T15:51:25.765Z,76.07
2023-01-31T15:54:01.887Z,73.25
2023-01-31T15:56:30.083Z,71.93
2023-01-31T15:58:59.377Z,74.30
2023-01-31T16:01:30.307Z,72.45
2023-01-31T16:03:59.213Z,69.10
2023-01-31T16:06:27.981Z,67.90
2023-01-31T16:09:00.725Z,72.05
2023-01-31T16:11:33.308Z,81.03
2023-01-31T16:14:03.807Z,73.25
2023-01-31T16:16:31.820Z,80.85
2023-01-31T16:19:00.324Z,74.45
2023-01-31T16:21:30.768Z,72.97
2023-01-31T16:24:02.691Z,78.43
2023-01-31T16:26:33.674Z,73.72
2023-01-31T16:29:07.809Z,69.75
2023-01-31T16:31:37.081Z,76.72
2023-01-31T16:34:06.394Z,73.20
2023-01-31T16:36:35.565Z,76.50
2023-01-31T16:39:04.582Z,73.15
2023-01-31T16:41:41.891Z,68.57
2023-01-31T16:44:14.963Z,76.22
2023-01-31T16:46:45.421Z,65.35
2023-01-31T16:49:23.809Z,77.97
2023-01-31T16:51:51.937Z,75.15
2023-01-31T16:54:21.898Z,83.13
2023-01-31T16:57:06.664Z,83.68
2023-01-31T16:59:45.924Z,70.93
2023-01-31T17:02:27.562Z,87.15
2023-01-31T17:04:56.608Z,68.95
2023-01-31T17:07:25.420Z,71.10
2023-01-31T17:09:55.425Z,68.00
2023-01-31T17:12:24.917Z,74.05
2023-01-31T17:15:00.809Z,72.25
2023-01-31T17:17:34.197Z,77.65
2023-01-31T17:20:02.191Z,65.20
2023-01-31T17:22:30.276Z,68.15
2023-01-31T17:24:58.541Z,62.10
2023-01-31T17:27:26.481Z,71.18
2023-01-31T17:29:55.813Z,67.97
2023-01-31T17:32:23.721Z,65.68
2023-01-31T17:34:51.616Z,66.40
2023-01-31T17:37:30.204Z,64.35
2023-01-31T17:39:59.566Z,63.53
2023-01-31T17:42:27.496Z,70.88
2023-01-31T17:44:56.959Z,69.30
2023-01-31T17:47:26.854Z,66.97
2023-01-31T17:49:55.172Z,65.47
2023-01-31T17:52:23.117Z,71.05
2023-01-31T17:54:51.161Z,62.35
2023-01-31T17:57:19.146Z,65.45
2023-01-31T17:59:47.098Z,66.55
2023-01-31T18:02:16.322Z,63.70
2023-01-31T18:04:44.265Z,59.65
2023-01-31T18:07:16.504Z,63.72
2023-01-31T18:09:45.592Z,63.95
2023-01-31T18:12:13.479Z,59.65
2023-01-31T18:14:41.355Z,57.97
2023-01-31T18:17:09.253Z,62.63
2023-01-31T18:19:38.755Z,63.63
2023-01-31T18:22:06.674Z,62.33
2023-01-31T18:24:34.797Z,58.20
2023-01-31T18:27:02.731Z,53.80
2023-01-31T18:29:30.773Z,61.83
2023-01-31T18:32:02.449Z,60.35
2023-01-31T18:34:30.623Z,60.58
2023-01-31T18:37:00.000Z,59.28
2023-01-31T18:39:28.007Z,61.22
2023-01-31T18:41:57.098Z,54.28
2023-01-31T18:44:25.442Z,52.15
2023-01-31T18:46:53.451Z,51.65
2023-01-31T18:49:21.367Z,47.38
2023-01-31T18:51:49.822Z,48.90
2023-01-31T18:54:19.357Z,42.33
2023-01-31T18:56:47.326Z,39.35
2023-01-31T18:59:15.332Z,40.17
2023-01-31T19:01:43.738Z,34.63
2023-01-31T19:04:11.662Z,41.10
2023-01-31T19:06:40.985Z,35.30
2023-01-31T19:09:09.315Z,35.88
2023-01-31T19:11:40.331Z,38.53
2023-01-31T19:14:08.424Z,33.25
2023-01-31T19:16:37.948Z,33.20
2023-01-31T19:19:05.895Z,31.38
2023-01-31T19:21:34.636Z,35.03
2023-01-31T19:24:03.887Z,34.70
2023-01-31T19:26:32.320Z,32.55
2023-01-31T19:29:01.955Z,34.10
2023-01-31T19:31:31.809Z,32.00
2023-01-31T19:34:01.078Z,29.30
2023-01-31T19:36:30.461Z,26.13
2023-01-31T19:38:58.612Z,31.67
2023-01-31T19:41:26.972Z,27.80
2023-01-31T19:43:55.835Z,27.80
2023-01-31T19:46:26.139Z,27.63
2023-01-31T19:48:54.187Z,26.55
2023-01-31T19:51:23.184Z,29.17
2023-01-31T19:53:51.129Z,27.05
2023-01-31T19:56:19.049Z,26.80
2023-01-31T19:58:47.420Z,24.50
2023-01-31T20:01:16.221Z,26.30
2023-01-31T20:03:45.871Z,25.42
2023-01-31T20:06:14.708Z,27.38
2023-01-31T20:08:42.766Z,24.13
2023-01-31T20:11:10.962Z,33.17
2023-01-31T20:13:38.920Z,25.60
2023-01-31T20:16:08.052Z,26.25
2023-01-31T20:18:36.219Z,30.17
2023-01-31T20:21:05.916Z,37.60
2023-01-31T20:23:34.072Z,39.13
2023-01-31T20:26:03.095Z,33.08
2023-01-31T20:28:30.980Z,47.38
2023-01-31T20:31:04.436Z,44.22
2023-01-31T20:33:32.580Z,42.95
2023-01-31T20:36:00.507Z,35.15
2023-01-31T20:38:30.956Z,33.97
2023-01-31T20:40:58.990Z,35.22
2023-01-31T20:43:27.292Z,35.15
2023-01-31T20:46:01.939Z,26.67
2023-01-31T20:48:29.824Z,27.15
2023-01-31T20:50:57.854Z,27.90
2023-01-31T20:53:28.522Z,26.83
2023-01-31T20:56:02.012Z,28.63
2023-01-31T20:58:31.974Z,23.38
2023-01-31T21:01:00.970Z,25.42
2023-01-31T21:03:29.269Z,26.17
2023-01-31T21:05:58.625Z,25.70
2023-01-31T21:08:26.673Z,34.70
2023-01-31T21:10:55.384Z,38.45
2023-01-31T21:13:25.187Z,29.52
2023-01-31T21:15:53.472Z,38.33
2023-01-31T21:18:21.428Z,38.65
2023-01-31T21:20:49.375Z,28.02
2023-01-31T21:23:17.298Z,34.17
2023-01-31T21:25:45.324Z,29.15
2023-01-31T21:28:13.237Z,26.08
2023-01-31T21:30:42.647Z,24.40
2023-01-31T21:33:10.612Z,22.05
2023-01-31T21:35:38.562Z,23.15
2023-01-31T21:38:06.476Z,30.17
2023-01-31T21:40:34.435Z,22.13
2023-01-31T21:43:01.348Z,23.45
2023-01-31T21:45:40.341Z,24.85
2023-01-31T21:48:27.971Z,17.67
2023-01-31T21:50:55.892Z,22.48
2023-01-31T21:53:23.807Z,21.88
2023-01-31T21:55:51.696Z,17.95
2023-01-31T21:58:20.817Z,24.55
2023-01-31T22:00:48.860Z,17.27
2023-01-31T22:03:18.396Z,20.58
2023-01-31T22:05:46.669Z,22.67
2023-01-31T22:08:14.723Z,17.02
2023-01-31T22:10:42.612Z,22.80
2023-01-31T22:13:10.490Z,17.45
2023-01-31T22:15:38.381Z,16.98
2023-01-31T22:18:06.360Z,20.95
2023-01-31T22:20:35.653Z,16.75
2023-01-31T22:23:03.542Z,15.73
2023-01-31T22:25:31.413Z,19.40
2023-01-31T22:27:59.295Z,15.15
2023-01-31T22:30:27.170Z,19.50
2023-01-31T22:32:55.052Z,18.45
2023-01-31T22:35:22.969Z,15.85
2023-01-31T22:37:52.589Z,17.60
2023-01-31T22:40:20.864Z,16.08
2023-01-31T22:42:48.912Z,17.35
2023-01-31T22:45:16.847Z,15.98
2023-01-31T22:47:44.689Z,16.83
2023-01-31T22:50:12.618Z,15.48
2023-01-31T22:52:40.499Z,12.75
2023-01-31T22:55:10.565Z,14.23
2023-01-31T22:57:38.458Z,12.27
2023-01-31T23:00:09.368Z,14.98
2023-01-31T23:02:37.310Z,13.13
2023-01-31T23:05:05.469Z,12.00
2023-01-31T23:07:33.329Z,16.60
2023-01-31T23:10:01.205Z,15.02
2023-01-31T23:12:30.400Z,13.30
2023-01-31T23:14:58.294Z,14.20
2023-01-31T23:17:38.238Z,11.70
2023-01-31T23:20:07.501Z,11.77
2023-01-31T23:22:35.393Z,11.43
2023-01-31T23:25:03.403Z,10.15
2023-01-31T23:27:32.745Z,11.40
2023-01-31T23:30:00.651Z,12.88
2023-01-31T23:32:28.578Z,11.85
2023-01-31T23:34:56.724Z,14.65
2023-01-31T23:37:24.711Z,11.13
2023-01-31T23:39:52.579Z,11.13
2023-01-31T23:42:20.482Z,10.27
2023-01-31T23:44:49.898Z,9.32
2023-01-31T23:47:17.841Z,10.13
2023-01-31T23:49:45.680Z,10.43
2023-01-31T23:52:13.546Z,11.30
2023-01-31T23:54:41.449Z,10.23
2023-01-31T23:57:09.397Z,9.65
2023-01-31T23:59:37.285Z,10.80
